Time;durP1;ratioP1;P1;durP2;ratioP2;P2;SDS_P1;SDS_P2;PMS_P1;PMS_P2;Temp;Humidity;BMP_temperature;BMP_pressure;BME280_temperature;BME280_humidity;BME280_pressure;Samples;Min_cycle;Max_cycle;Signal;HPM_P1;HPM_P2
2023/11/02 00:01:30;;;;;;;5.63;1.58;;;;;;;;;;5018547;28;20022;-77
2023/11/02 00:03:56;;;;;;;4.47;1.50;;;;;;;;;;5016404;28;20038;-77
2023/11/02 00:06:33;;;;;;;3.72;1.40;;;;;;;;;;5014341;28;20025;-77
2023/11/02 00:09:04;;;;;;;7.00;2.65;;;;;;;;;;5005672;28;20030;-77
2023/11/02 00:11:47;;;;;;;8.50;1.47;;;;;;;;;;5007294;28;20030;-76
2023/11/02 00:14:12;;;;;;;3.78;1.20;;;;;;;;;;5015373;28;20754;-77
2023/11/02 00:16:38;;;;;;;3.50;0.93;;;;;;;;;;5015685;28;20057;-77
2023/11/02 00:19:05;;;;;;;4.07;1.20;;;;;;;;;;5012608;28;20067;-76
2023/11/02 00:21:31;;;;;;;2.60;0.80;;;;;;;;;;5009485;28;20367;-76
2023/11/02 00:23:56;;;;;;;6.32;0.85;;;;;;;;;;5006874;28;20049;-77
2023/11/02 00:26:21;;;;;;;3.08;1.08;;;;;;;;;;5003804;28;20026;-76
2023/11/02 00:28:47;;;;;;;3.22;1.10;;;;;;;;;;5007408;28;20033;-77
2023/11/02 00:31:13;;;;;;;2.83;0.93;;;;;;;;;;5017488;28;20034;-76
2023/11/02 00:33:38;;;;;;;6.82;1.50;;;;;;;;;;5011001;28;20062;-76
2023/11/02 00:36:03;;;;;;;4.10;1.50;;;;;;;;;;5011052;28;20071;-76
2023/11/02 00:38:28;;;;;;;4.32;1.60;;;;;;;;;;4995281;28;20083;-76
2023/11/02 00:40:55;;;;;;;4.68;1.35;;;;;;;;;;4993946;28;20097;-76
2023/11/02 00:43:21;;;;;;;6.10;1.20;;;;;;;;;;5002423;28;20057;-76
2023/11/02 00:45:47;;;;;;;5.40;1.27;;;;;;;;;;4992576;28;20022;-76
2023/11/02 00:48:17;;;;;;;4.63;1.40;;;;;;;;;;5007133;28;20026;-76
2023/11/02 00:51:02;;;;;;;3.38;1.10;;;;;;;;;;5005997;28;20040;-76
2023/11/02 00:53:27;;;;;;;3.53;1.38;;;;;;;;;;4999437;28;20029;-77
2023/11/02 00:55:52;;;;;;;3.28;1.33;;;;;;;;;;4997563;28;20033;-76
2023/11/02 00:58:22;;;;;;;4.43;1.30;;;;;;;;;;5017691;28;20100;-77
2023/11/02 01:00:53;;;;;;;4.65;1.33;;;;;;;;;;4989290;28;20120;-76
2023/11/02 01:03:22;;;;;;;3.97;1.20;;;;;;;;;;5005309;28;20033;-77
2023/11/02 01:05:48;;;;;;;5.72;1.50;;;;;;;;;;4987418;28;20280;-77
2023/11/02 01:08:13;;;;;;;4.82;0.90;;;;;;;;;;4986745;28;20034;-77
2023/11/02 01:10:40;;;;;;;4.53;1.40;;;;;;;;;;5013909;28;20022;-77
2023/11/02 01:13:10;;;;;;;3.55;1.10;;;;;;;;;;5000239;28;20025;-77
2023/11/02 01:15:44;;;;;;;3.60;1.55;;;;;;;;;;4993332;28;20120;-77
2023/11/02 01:18:10;;;;;;;3.95;0.90;;;;;;;;;;5006144;28;20474;-77
2023/11/02 01:20:39;;;;;;;4.07;1.17;;;;;;;;;;5005881;28;20398;-77
2023/11/02 01:23:04;;;;;;;6.47;1.33;;;;;;;;;;4994413;28;20394;-77
2023/11/02 01:25:30;;;;;;;5.45;1.20;;;;;;;;;;4996570;28;20025;-76
2023/11/02 01:28:00;;;;;;;3.67;1.10;;;;;;;;;;4997325;28;20029;-77
2023/11/02 01:30:27;;;;;;;3.88;1.23;;;;;;;;;;5004514;28;20030;-77
2023/11/02 01:32:53;;;;;;;6.00;1.73;;;;;;;;;;4993415;28;20043;-77
2023/11/02 01:35:37;;;;;;;3.40;1.13;;;;;;;;;;5010267;28;20486;-77
2023/11/02 01:38:03;;;;;;;4.13;0.95;;;;;;;;;;5010596;28;20034;-76
2023/11/02 01:40:35;;;;;;;4.32;1.27;;;;;;;;;;5012608;28;20037;-77
2023/11/02 01:43:02;;;;;;;5.70;1.40;;;;;;;;;;5005218;28;20483;-76
2023/11/02 01:45:27;;;;;;;3.38;1.10;;;;;;;;;;5010610;28;20022;-76
2023/11/02 01:48:02;;;;;;;4.53;1.30;;;;;;;;;;5006791;28;20026;-76
2023/11/02 01:50:32;;;;;;;4.20;1.20;;;;;;;;;;5005624;28;20029;-76
2023/11/02 01:53:11;;;;;;;3.70;1.60;;;;;;;;;;5020439;28;20042;-77
2023/11/02 01:55:42;;;;;;;3.90;1.25;;;;;;;;;;5014267;28;20076;-77
2023/11/02 01:58:17;;;;;;;3.70;1.50;;;;;;;;;;5002609;28;20025;-77
2023/11/02 02:00:52;;;;;;;4.30;1.50;;;;;;;;;;4998950;28;20033;-77
2023/11/02 02:03:26;;;;;;;6.15;1.40;;;;;;;;;;5005375;28;20021;-77
2023/11/02 02:05:55;;;;;;;5.50;1.65;;;;;;;;;;4996950;28;20053;-76
2023/11/02 02:08:20;;;;;;;4.80;1.60;;;;;;;;;;5004190;28;20394;-77
2023/11/02 02:10:48;;;;;;;5.25;1.50;;;;;;;;;;4996910;28;20030;-76
2023/11/02 02:13:27;;;;;;;4.18;1.50;;;;;;;;;;5013532;28;20026;-76
2023/11/02 02:16:08;;;;;;;4.70;1.50;;;;;;;;;;5010223;28;20028;-77
2023/11/02 02:18:33;;;;;;;4.20;1.35;;;;;;;;;;5006523;28;20037;-76
2023/11/02 02:21:03;;;;;;;6.00;1.83;;;;;;;;;;5004080;28;20034;-77
2023/11/02 02:23:37;;;;;;;6.72;1.83;;;;;;;;;;5001815;28;20025;-77
2023/11/02 02:26:21;;;;;;;7.28;1.65;;;;;;;;;;5012839;28;20029;-77
2023/11/02 02:29:02;;;;;;;5.18;1.90;;;;;;;;;;5006782;28;20440;-76
2023/11/02 02:31:46;;;;;;;5.95;2.15;;;;;;;;;;5002633;28;20034;-77
2023/11/02 02:34:30;;;;;;;5.75;1.77;;;;;;;;;;5002761;28;20025;-77
2023/11/02 02:37:03;;;;;;;4.68;1.50;;;;;;;;;;5015754;28;20061;-76
2023/11/02 02:39:29;;;;;;;4.22;1.65;;;;;;;;;;5011831;28;20041;-77
2023/11/02 02:41:59;;;;;;;8.25;2.13;;;;;;;;;;5005647;28;20038;-77
2023/11/02 02:44:25;;;;;;;5.85;2.42;;;;;;;;;;5007278;28;20402;-77
2023/11/02 02:46:52;;;;;;;5.53;1.85;;;;;;;;;;5006194;28;20032;-77
2023/11/02 02:49:17;;;;;;;5.85;1.90;;;;;;;;;;5020919;28;20017;-77
2023/11/02 02:51:44;;;;;;;5.20;1.48;;;;;;;;;;4999542;28;20515;-77
2023/11/02 02:54:12;;;;;;;6.30;1.88;;;;;;;;;;4998907;28;20036;-77
2023/11/02 02:56:39;;;;;;;6.25;2.28;;;;;;;;;;5007834;28;20112;-76
2023/11/02 02:59:07;;;;;;;6.22;1.73;;;;;;;;;;5005670;28;20435;-77
2023/11/02 03:01:42;;;;;;;5.63;1.85;;;;;;;;;;5002669;28;20142;-77
2023/11/02 03:04:10;;;;;;;5.28;2.17;;;;;;;;;;5014997;28;20112;-77
2023/11/02 03:06:38;;;;;;;5.30;2.03;;;;;;;;;;5009909;28;20029;-77
2023/11/02 03:09:04;;;;;;;5.63;1.65;;;;;;;;;;5007486;28;20030;-77
2023/11/02 03:11:29;;;;;;;4.10;2.00;;;;;;;;;;5007011;28;20034;-77
2023/11/02 03:13:56;;;;;;;4.55;1.70;;;;;;;;;;4991657;28;20116;-77
2023/11/02 03:16:22;;;;;;;8.30;2.13;;;;;;;;;;4998675;28;20034;-77
2023/11/02 03:18:47;;;;;;;7.57;2.00;;;;;;;;;;5008039;28;20076;-77
2023/11/02 03:21:14;;;;;;;5.60;2.15;;;;;;;;;;5008816;28;20509;-77
2023/11/02 03:23:48;;;;;;;5.13;2.10;;;;;;;;;;4996057;28;20026;-77
2023/11/02 03:26:18;;;;;;;8.55;2.40;;;;;;;;;;5002058;28;20022;-77
2023/11/02 03:28:49;;;;;;;8.40;2.20;;;;;;;;;;5008845;28;20680;-77
2023/11/02 03:31:21;;;;;;;4.00;1.83;;;;;;;;;;5007016;28;20371;-76
2023/11/02 03:33:51;;;;;;;6.47;2.58;;;;;;;;;;4998034;28;20061;-77
2023/11/02 03:36:18;;;;;;;5.78;2.30;;;;;;;;;;5014799;28;20042;-76
2023/11/02 03:39:02;;;;;;;6.22;2.08;;;;;;;;;;5005707;28;20030;-77
2023/11/02 03:41:30;;;;;;;8.50;2.10;;;;;;;;;;5004922;28;20033;-77
2023/11/02 03:44:02;;;;;;;5.55;2.65;;;;;;;;;;5000037;28;20506;-77
2023/11/02 03:46:33;;;;;;;6.97;2.67;;;;;;;;;;5016433;28;20029;-76
2023/11/02 03:49:05;;;;;;;5.18;2.30;;;;;;;;;;5012628;28;20408;-76
2023/11/02 03:51:49;;;;;;;5.45;2.42;;;;;;;;;;5008608;28;20030;-76
2023/11/02 03:54:27;;;;;;;9.70;2.60;;;;;;;;;;5006375;28;20026;-77
2023/11/02 03:56:55;;;;;;;6.10;2.72;;;;;;;;;;5009577;28;20026;-77
2023/11/02 03:59:25;;;;;;;5.20;2.30;;;;;;;;;;5017140;28;20063;-77
2023/11/02 04:02:03;;;;;;;5.35;3.20;;;;;;;;;;5012397;28;20040;-77
2023/11/02 04:04:33;;;;;;;6.90;3.00;;;;;;;;;;5006967;28;20018;-77
2023/11/02 04:07:03;;;;;;;7.28;3.00;;;;;;;;;;5009247;28;20038;-77
2023/11/02 04:09:34;;;;;;;7.47;2.83;;;;;;;;;;5008449;28;20030;-77
2023/11/02 04:12:05;;;;;;;8.95;3.22;;;;;;;;;;5019008;28;20029;-77
2023/11/02 04:14:30;;;;;;;7.55;2.75;;;;;;;;;;5013569;28;20030;-77
2023/11/02 04:16:55;;;;;;;9.00;3.13;;;;;;;;;;5011288;28;20517;-77
2023/11/02 04:19:20;;;;;;;6.72;2.97;;;;;;;;;;5009415;28;20030;-77
2023/11/02 04:21:46;;;;;;;7.28;2.72;;;;;;;;;;5002961;28;20038;-77
2023/11/02 04:24:11;;;;;;;6.90;2.90;;;;;;;;;;5014636;28;20025;-77
2023/11/02 04:26:37;;;;;;;8.00;3.33;;;;;;;;;;5010444;28;20030;-78
2023/11/02 04:29:03;;;;;;;6.47;2.83;;;;;;;;;;5008664;28;20042;-78
2023/11/02 04:31:28;;;;;;;7.78;2.92;;;;;;;;;;5011524;28;20030;-77
2023/11/02 04:33:53;;;;;;;7.32;3.65;;;;;;;;;;5006558;28;20530;-78
2023/11/02 04:36:18;;;;;;;7.57;3.20;;;;;;;;;;5008839;28;20565;-77
2023/11/02 04:38:44;;;;;;;7.30;2.80;;;;;;;;;;5006753;28;20026;-78
2023/11/02 04:41:10;;;;;;;6.63;3.15;;;;;;;;;;5018902;28;20389;-77
2023/11/02 04:43:36;;;;;;;5.75;3.08;;;;;;;;;;4998454;28;20030;-78
2023/11/02 04:46:01;;;;;;;5.50;3.25;;;;;;;;;;5004632;28;20018;-78
2023/11/02 04:48:27;;;;;;;6.80;3.13;;;;;;;;;;5006291;28;20026;-78
2023/11/02 04:50:53;;;;;;;10.52;3.72;;;;;;;;;;5001626;28;20391;-78
2023/11/02 04:53:18;;;;;;;10.57;3.47;;;;;;;;;;5015345;28;20110;-78
2023/11/02 04:55:43;;;;;;;8.60;3.20;;;;;;;;;;4987825;28;20155;-78
2023/11/02 04:58:08;;;;;;;6.25;3.72;;;;;;;;;;5005817;28;20632;-78
2023/11/02 05:00:34;;;;;;;6.28;3.13;;;;;;;;;;5004047;28;20025;-78
2023/11/02 05:02:59;;;;;;;6.13;3.10;;;;;;;;;;4992485;28;20473;-78
2023/11/02 05:05:24;;;;;;;6.65;3.47;;;;;;;;;;5002554;28;20105;-78
2023/11/02 05:07:49;;;;;;;10.32;3.42;;;;;;;;;;4992986;28;20036;-77
2023/11/02 05:10:15;;;;;;;6.88;2.90;;;;;;;;;;5008405;28;20022;-78
2023/11/02 05:12:40;;;;;;;7.05;3.28;;;;;;;;;;5008837;28;20041;-79
2023/11/02 05:15:05;;;;;;;6.38;3.00;;;;;;;;;;4986095;28;20031;-78
2023/11/02 05:17:30;;;;;;;6.88;3.30;;;;;;;;;;5004738;28;20536;-78
2023/11/02 05:19:56;;;;;;;8.15;3.22;;;;;;;;;;4994146;28;20064;-77
2023/11/02 05:22:21;;;;;;;7.28;2.92;;;;;;;;;;5009821;28;20477;-77
2023/11/02 05:24:46;;;;;;;6.50;3.03;;;;;;;;;;5016107;28;20037;-77
2023/11/02 05:27:12;;;;;;;6.32;3.35;;;;;;;;;;5009862;28;20026;-77
2023/11/02 05:29:37;;;;;;;14.85;7.63;;;;;;;;;;5007198;28;20034;-78
2023/11/02 05:32:03;;;;;;;10.13;4.63;;;;;;;;;;5006453;28;20161;-77
2023/11/02 05:34:28;;;;;;;6.78;3.50;;;;;;;;;;5010176;28;20379;-77
2023/11/02 05:36:53;;;;;;;5.88;2.70;;;;;;;;;;4995746;28;20034;-78
2023/11/02 05:39:18;;;;;;;7.22;3.20;;;;;;;;;;5010235;28;20026;-77
2023/11/02 05:41:44;;;;;;;5.80;2.83;;;;;;;;;;5007269;28;20442;-77
2023/11/02 05:44:10;;;;;;;5.32;3.33;;;;;;;;;;5013107;28;20040;-78
2023/11/02 05:46:35;;;;;;;6.00;3.28;;;;;;;;;;5005323;28;20030;-78
2023/11/02 05:49:00;;;;;;;8.27;3.60;;;;;;;;;;5013415;28;20105;-78
2023/11/02 05:51:25;;;;;;;6.30;3.30;;;;;;;;;;5012482;28;20037;-78
2023/11/02 05:53:51;;;;;;;8.85;2.55;;;;;;;;;;4989350;28;20026;-77
2023/11/02 05:56:16;;;;;;;5.93;2.88;;;;;;;;;;5009833;28;20044;-78
2023/11/02 05:58:42;;;;;;;4.25;2.00;;;;;;;;;;5012777;28;20494;-78
2023/11/02 06:01:08;;;;;;;5.47;2.08;;;;;;;;;;5008753;28;20041;-78
2023/11/02 06:03:33;;;;;;;4.20;1.98;;;;;;;;;;5008495;28;20018;-78
2023/11/02 06:05:58;;;;;;;4.78;2.28;;;;;;;;;;5014357;28;20061;-78
2023/11/02 06:08:23;;;;;;;4.10;1.95;;;;;;;;;;5010356;28;20034;-78
2023/11/02 06:10:49;;;;;;;5.68;2.67;;;;;;;;;;5008569;28;20022;-78
2023/11/02 06:13:14;;;;;;;6.32;2.35;;;;;;;;;;5010072;28;20057;-78
2023/11/02 06:15:39;;;;;;;6.30;2.20;;;;;;;;;;5009202;28;20033;-78
2023/11/02 06:18:05;;;;;;;4.80;2.00;;;;;;;;;;5006182;28;20026;-77
2023/11/02 06:20:31;;;;;;;6.30;2.90;;;;;;;;;;5016550;28;20034;-77
2023/11/02 06:22:57;;;;;;;7.22;2.30;;;;;;;;;;5009591;28;20030;-77
2023/11/02 06:25:22;;;;;;;4.43;2.38;;;;;;;;;;5007073;28;20022;-78
2023/11/02 06:27:47;;;;;;;4.82;1.45;;;;;;;;;;5007849;28;20058;-78
2023/11/02 06:30:13;;;;;;;4.43;2.00;;;;;;;;;;5023684;28;20556;-78
2023/11/02 06:32:38;;;;;;;8.27;2.95;;;;;;;;;;5018413;28;20105;-78
2023/11/02 06:35:03;;;;;;;5.00;2.55;;;;;;;;;;5014490;28;20073;-77
2023/11/02 06:37:28;;;;;;;4.78;2.60;;;;;;;;;;5010710;28;20504;-77
2023/11/02 06:39:54;;;;;;;7.05;2.25;;;;;;;;;;5002684;28;20120;-78
2023/11/02 06:42:19;;;;;;;7.15;2.80;;;;;;;;;;4996319;28;20075;-77
2023/11/02 06:44:44;;;;;;;4.93;2.55;;;;;;;;;;5019154;28;20031;-78
2023/11/02 06:47:10;;;;;;;6.03;2.40;;;;;;;;;;5014555;28;20095;-77
2023/11/02 06:49:35;;;;;;;5.55;1.90;;;;;;;;;;5009460;28;20033;-78
2023/11/02 06:52:02;;;;;;;5.05;2.50;;;;;;;;;;5012225;28;20022;-78
2023/11/02 06:54:27;;;;;;;7.38;3.45;;;;;;;;;;4996840;28;20041;-77
2023/11/02 06:56:53;;;;;;;8.25;3.97;;;;;;;;;;5010716;28;20042;-78
2023/11/02 06:59:18;;;;;;;4.80;3.03;;;;;;;;;;5008778;28;20029;-78
2023/11/02 07:01:44;;;;;;;4.82;2.90;;;;;;;;;;5013289;28;20030;-78
2023/11/02 07:04:09;;;;;;;6.35;2.40;;;;;;;;;;5014029;28;20034;-78
2023/11/02 07:06:34;;;;;;;4.20;2.10;;;;;;;;;;5012042;28;20022;-78
2023/11/02 07:09:00;;;;;;;8.63;2.60;;;;;;;;;;5010200;28;20031;-78
2023/11/02 07:11:25;;;;;;;5.28;2.60;;;;;;;;;;5003012;28;20033;-78
2023/11/02 07:13:50;;;;;;;6.55;2.22;;;;;;;;;;5016997;28;20700;-78
2023/11/02 07:16:16;;;;;;;5.75;2.08;;;;;;;;;;5008219;28;20033;-78
2023/11/02 07:18:41;;;;;;;4.50;2.30;;;;;;;;;;5009703;28;20026;-78
2023/11/02 07:21:06;;;;;;;4.75;2.28;;;;;;;;;;5004753;28;20049;-78
2023/11/02 07:23:32;;;;;;;4.47;2.30;;;;;;;;;;5004966;28;20026;-77
2023/11/02 07:25:57;;;;;;;5.00;2.30;;;;;;;;;;5017757;28;20045;-78
2023/11/02 07:28:22;;;;;;;5.53;2.30;;;;;;;;;;5020182;28;20114;-78
2023/11/02 07:30:48;;;;;;;5.28;2.95;;;;;;;;;;5013845;28;20030;-78
2023/11/02 07:33:13;;;;;;;4.75;2.55;;;;;;;;;;4999708;28;20021;-78
2023/11/02 07:35:38;;;;;;;4.25;2.72;;;;;;;;;;5008376;28;20033;-78
2023/11/02 07:38:03;;;;;;;4.95;2.70;;;;;;;;;;5008934;28;20162;-77
2023/11/02 07:40:28;;;;;;;5.50;2.92;;;;;;;;;;5018781;28;20029;-77
2023/11/02 07:42:54;;;;;;;5.40;3.08;;;;;;;;;;5018890;28;20091;-77
2023/11/02 07:45:19;;;;;;;5.63;2.05;;;;;;;;;;5016639;28;20079;-77
2023/11/02 07:47:44;;;;;;;5.40;2.92;;;;;;;;;;5017157;28;20022;-77
2023/11/02 07:50:10;;;;;;;5.03;2.90;;;;;;;;;;5016265;28;20033;-78
2023/11/02 07:52:36;;;;;;;4.32;2.50;;;;;;;;;;4998975;28;20034;-77
2023/11/02 07:55:01;;;;;;;6.40;3.03;;;;;;;;;;5023018;28;20025;-77
2023/11/02 07:57:26;;;;;;;4.30;2.10;;;;;;;;;;5024038;28;20030;-77
2023/11/02 07:59:52;;;;;;;6.45;3.28;;;;;;;;;;5016574;28;20030;-77
2023/11/02 08:02:18;;;;;;;4.28;2.20;;;;;;;;;;5014629;28;20052;-77
2023/11/02 08:04:43;;;;;;;5.78;2.50;;;;;;;;;;5010116;28;20058;-77
2023/11/02 08:07:08;;;;;;;5.03;2.13;;;;;;;;;;5024710;28;20030;-77
2023/11/02 08:09:34;;;;;;;6.93;2.25;;;;;;;;;;5024511;28;20022;-77
2023/11/02 08:12:02;;;;;;;4.65;2.35;;;;;;;;;;5003924;28;20116;-77
2023/11/02 08:14:27;;;;;;;4.78;2.75;;;;;;;;;;5017552;28;20026;-78
2023/11/02 08:16:52;;;;;;;4.60;2.20;;;;;;;;;;5012925;28;20030;-77
2023/11/02 08:19:18;;;;;;;4.90;2.20;;;;;;;;;;5018453;28;20118;-78
2023/11/02 08:21:43;;;;;;;4.15;2.47;;;;;;;;;;5023954;28;20034;-77
2023/11/02 08:24:09;;;;;;;3.22;1.77;;;;;;;;;;5025907;28;20497;-77
2023/11/02 08:26:34;;;;;;;4.32;1.90;;;;;;;;;;5021437;28;20022;-77
2023/11/02 08:28:59;;;;;;;4.47;2.30;;;;;;;;;;5019402;28;20025;-77
2023/11/02 08:31:25;;;;;;;3.78;1.77;;;;;;;;;;5015596;28;20159;-77
2023/11/02 08:33:50;;;;;;;3.30;1.85;;;;;;;;;;5008867;28;20030;-77
2023/11/02 08:36:16;;;;;;;3.13;1.60;;;;;;;;;;5025546;28;20432;-77
2023/11/02 08:38:41;;;;;;;4.00;1.60;;;;;;;;;;5023810;28;20034;-77
2023/11/02 08:41:06;;;;;;;4.45;2.58;;;;;;;;;;5020623;28;20022;-77
2023/11/02 08:43:34;;;;;;;4.85;1.83;;;;;;;;;;5017779;28;20022;-77
2023/11/02 08:45:59;;;;;;;3.75;2.10;;;;;;;;;;5012095;28;20026;-77
2023/11/02 08:48:26;;;;;;;3.35;1.48;;;;;;;;;;5016878;28;20022;-77
2023/11/02 08:50:51;;;;;;;3.05;1.30;;;;;;;;;;5017122;28;20030;-77
2023/11/02 08:53:16;;;;;;;4.00;1.73;;;;;;;;;;5025189;28;20097;-77
2023/11/02 08:55:42;;;;;;;2.65;1.10;;;;;;;;;;5018292;28;20037;-77
2023/11/02 08:58:07;;;;;;;3.08;1.30;;;;;;;;;;5002210;28;20030;-77
2023/11/02 09:00:33;;;;;;;2.17;1.02;;;;;;;;;;5015516;28;20022;-77
2023/11/02 09:02:58;;;;;;;3.67;1.50;;;;;;;;;;5008476;28;20038;-77
2023/11/02 09:05:23;;;;;;;3.63;1.10;;;;;;;;;;5026781;28;20537;-77
2023/11/02 09:07:48;;;;;;;2.95;0.90;;;;;;;;;;5021140;28;20105;-77
2023/11/02 09:10:14;;;;;;;3.60;1.63;;;;;;;;;;5006312;28;20079;-77
2023/11/02 09:12:39;;;;;;;2.03;1.10;;;;;;;;;;5015890;28;20034;-77
2023/11/02 09:15:05;;;;;;;8.55;1.95;;;;;;;;;;5018343;28;20048;-77
2023/11/02 09:17:30;;;;;;;3.00;1.48;;;;;;;;;;5025628;28;20032;-77
2023/11/02 09:19:55;;;;;;;2.25;1.08;;;;;;;;;;5024524;28;20049;-77
2023/11/02 09:22:20;;;;;;;2.15;0.88;;;;;;;;;;5008278;28;20040;-77
2023/11/02 09:24:45;;;;;;;1.65;0.60;;;;;;;;;;5014781;28;20030;-77
2023/11/02 09:27:11;;;;;;;2.45;1.08;;;;;;;;;;4997830;28;20561;-77
2023/11/02 09:29:36;;;;;;;3.67;1.52;;;;;;;;;;4997839;28;20505;-77
2023/11/02 09:32:02;;;;;;;2.58;1.20;;;;;;;;;;5026678;28;20030;-77
2023/11/02 09:34:27;;;;;;;3.20;1.30;;;;;;;;;;5025571;28;20037;-76
2023/11/02 09:36:53;;;;;;;2.75;1.13;;;;;;;;;;5020500;28;20042;-77
2023/11/02 09:39:18;;;;;;;2.35;1.08;;;;;;;;;;5015112;28;20029;-77
2023/11/02 09:41:43;;;;;;;2.10;1.10;;;;;;;;;;5016366;28;20092;-77
2023/11/02 09:44:10;;;;;;;8.32;2.90;;;;;;;;;;5018441;28;20117;-77
2023/11/02 09:46:35;;;;;;;7.03;2.67;;;;;;;;;;5003136;28;20044;-77
2023/11/02 09:49:00;;;;;;;6.07;2.35;;;;;;;;;;5009227;28;20030;-77
2023/11/02 09:51:26;;;;;;;3.13;1.70;;;;;;;;;;5018242;28;20034;-77
2023/11/02 09:53:51;;;;;;;5.20;1.50;;;;;;;;;;5012703;28;20117;-77
2023/11/02 09:56:19;;;;;;;3.15;1.52;;;;;;;;;;5014633;28;20094;-77
2023/11/02 09:58:45;;;;;;;2.05;0.93;;;;;;;;;;5026425;28;20413;-77
2023/11/02 10:01:11;;;;;;;4.78;1.98;;;;;;;;;;5025147;28;20098;-77
2023/11/02 10:03:37;;;;;;;3.50;1.00;;;;;;;;;;5000690;28;20092;-77
2023/11/02 10:06:03;;;;;;;4.63;1.52;;;;;;;;;;5019264;28;20030;-78
2023/11/02 10:08:28;;;;;;;3.70;1.23;;;;;;;;;;5015198;28;20033;-77
2023/11/02 10:11:08;;;;;;;1.67;0.82;;;;;;;;;;5013675;28;20099;-77
2023/11/02 10:13:33;;;;;;;1.67;0.98;;;;;;;;;;5030829;28;20038;-77
2023/11/02 10:15:58;;;;;;;2.92;1.48;;;;;;;;;;5021536;28;20113;-77
2023/11/02 10:18:24;;;;;;;2.65;1.10;;;;;;;;;;5024142;28;20085;-77
2023/11/02 10:20:50;;;;;;;3.20;1.58;;;;;;;;;;5006343;28;20054;-77
2023/11/02 10:23:16;;;;;;;1.52;0.90;;;;;;;;;;5013606;28;20029;-78
2023/11/02 10:25:42;;;;;;;4.55;1.08;;;;;;;;;;4993204;28;20029;-77
2023/11/02 10:28:07;;;;;;;4.50;1.52;;;;;;;;;;5012661;28;20030;-78
2023/11/02 10:30:33;;;;;;;1.52;0.85;;;;;;;;;;5018608;28;20022;-78
2023/11/02 10:33:05;;;;;;;2.05;0.85;;;;;;;;;;5015609;28;20109;-78
2023/11/02 10:35:30;;;;;;;4.55;0.90;;;;;;;;;;5014892;28;20068;-78
2023/11/02 10:37:55;;;;;;;3.08;0.70;;;;;;;;;;5008673;28;20472;-78
2023/11/02 10:40:21;;;;;;;2.35;0.90;;;;;;;;;;5011922;28;20124;-77
2023/11/02 10:42:46;;;;;;;2.75;0.93;;;;;;;;;;5017908;28;20075;-78
2023/11/02 10:45:13;;;;;;;3.03;0.88;;;;;;;;;;5016244;28;20022;-78
2023/11/02 10:47:39;;;;;;;1.05;0.52;;;;;;;;;;5010231;28;20026;-77
2023/11/02 10:50:06;;;;;;;2.92;0.77;;;;;;;;;;5007528;28;20097;-78
2023/11/02 10:52:43;;;;;;;2.40;0.90;;;;;;;;;;5010739;28;20038;-78
2023/11/02 10:55:13;;;;;;;1.55;0.77;;;;;;;;;;4996680;28;20686;-80
2023/11/02 10:57:38;;;;;;;3.03;0.80;;;;;;;;;;5017551;28;20026;-78
2023/11/02 11:00:04;;;;;;;1.77;0.73;;;;;;;;;;5010728;28;20045;-77
2023/11/02 11:02:34;;;;;;;5.55;1.35;;;;;;;;;;5017356;28;20036;-78
2023/11/02 11:05:00;;;;;;;2.90;0.80;;;;;;;;;;5006034;28;20057;-78
2023/11/02 11:07:26;;;;;;;4.25;1.00;;;;;;;;;;5013933;28;20109;-78
2023/11/02 11:09:52;;;;;;;1.73;0.95;;;;;;;;;;5026499;28;20049;-77
2023/11/02 11:12:20;;;;;;;4.65;1.20;;;;;;;;;;5020266;28;20087;-79
2023/11/02 11:14:46;;;;;;;4.65;1.10;;;;;;;;;;5012558;28;20034;-79
2023/11/02 11:17:12;;;;;;;4.22;1.25;;;;;;;;;;5011600;28;20038;-79
2023/11/02 11:19:38;;;;;;;2.72;0.95;;;;;;;;;;5006231;28;20105;-79
2023/11/02 11:22:12;;;;;;;2.30;0.95;;;;;;;;;;5015784;28;20065;-80
2023/11/02 11:24:37;;;;;;;2.78;1.58;;;;;;;;;;5018548;28;20022;-78
2023/11/02 11:27:04;;;;;;;2.38;0.73;;;;;;;;;;5014351;28;20133;-79
2023/11/02 11:29:41;;;;;;;2.08;0.85;;;;;;;;;;5012138;28;20398;-78
2023/11/02 11:32:28;;;;;;;2.60;1.13;;;;;;;;;;5007205;28;20408;-76
2023/11/02 11:34:53;;;;;;;2.58;0.93;;;;;;;;;;5008769;28;20037;-76
2023/11/02 11:37:37;;;;;;;2.50;0.88;;;;;;;;;;5021285;28;20510;-76
2023/11/02 11:40:05;;;;;;;2.05;1.00;;;;;;;;;;5013904;28;20090;-76
2023/11/02 11:42:49;;;;;;;1.70;0.80;;;;;;;;;;5014747;28;20050;-76
2023/11/02 11:45:34;;;;;;;2.33;1.00;;;;;;;;;;5008361;28;20108;-76
2023/11/02 11:48:00;;;;;;;2.83;1.17;;;;;;;;;;5008502;28;20113;-75
2023/11/02 11:50:38;;;;;;;1.77;0.65;;;;;;;;;;5021293;28;20032;-75
2023/11/02 11:53:08;;;;;;;4.28;0.98;;;;;;;;;;5009438;28;20037;-76
2023/11/02 11:55:35;;;;;;;1.95;0.68;;;;;;;;;;5013172;28;20029;-76
2023/11/02 11:58:01;;;;;;;1.75;0.65;;;;;;;;;;5007685;28;20491;-76
2023/11/02 12:00:27;;;;;;;1.90;0.80;;;;;;;;;;5008304;28;20037;-76
2023/11/02 12:02:55;;;;;;;3.03;1.10;;;;;;;;;;5012222;28;20033;-76
2023/11/02 12:05:39;;;;;;;4.43;1.85;;;;;;;;;;5009019;28;20100;-77
2023/11/02 12:08:05;;;;;;;3.17;0.70;;;;;;;;;;5010989;28;20080;-76
2023/11/02 12:10:30;;;;;;;1.65;0.77;;;;;;;;;;5011523;28;20112;-77
2023/11/02 12:12:56;;;;;;;4.15;0.80;;;;;;;;;;5007766;28;20116;-75
2023/11/02 12:15:21;;;;;;;6.30;0.77;;;;;;;;;;5004056;28;20018;-76
2023/11/02 12:17:47;;;;;;;2.03;0.77;;;;;;;;;;5014050;28;20055;-76
2023/11/02 12:20:31;;;;;;;3.55;0.90;;;;;;;;;;5017144;28;20501;-76
2023/11/02 12:22:57;;;;;;;2.28;0.90;;;;;;;;;;5013341;28;20406;-76
2023/11/02 12:25:22;;;;;;;2.63;1.00;;;;;;;;;;5008247;28;20026;-76
2023/11/02 12:28:00;;;;;;;2.55;1.13;;;;;;;;;;4992062;28;20463;-76
2023/11/02 12:30:25;;;;;;;6.07;1.80;;;;;;;;;;5006697;28;20167;-77
2023/11/02 12:32:50;;;;;;;2.17;0.90;;;;;;;;;;4991799;28;20112;-76
2023/11/02 12:35:18;;;;;;;2.13;0.93;;;;;;;;;;4990035;28;20041;-77
2023/11/02 12:37:44;;;;;;;2.17;1.00;;;;;;;;;;5011706;28;20084;-75
2023/11/02 12:40:10;;;;;;;3.95;0.90;;;;;;;;;;5009532;28;20034;-76
2023/11/02 12:42:36;;;;;;;2.40;0.90;;;;;;;;;;4994377;28;20030;-76
2023/11/02 12:45:02;;;;;;;2.55;1.25;;;;;;;;;;5011170;28;20486;-76
2023/11/02 12:47:40;;;;;;;3.10;1.15;;;;;;;;;;5015843;28;20112;-76
2023/11/02 12:50:06;;;;;;;2.90;1.20;;;;;;;;;;5010392;28;20104;-76
2023/11/02 12:52:40;;;;;;;1.80;0.90;;;;;;;;;;5010496;28;20029;-76
2023/11/02 12:55:06;;;;;;;2.40;1.00;;;;;;;;;;4995123;28;20034;-77
2023/11/02 12:57:37;;;;;;;4.90;1.90;;;;;;;;;;5007092;28;20087;-76
2023/11/02 13:00:04;;;;;;;3.63;1.38;;;;;;;;;;5010867;28;20042;-76
2023/11/02 13:02:29;;;;;;;3.88;1.05;;;;;;;;;;5015001;28;20029;-76
2023/11/02 13:05:00;;;;;;;3.47;1.48;;;;;;;;;;5011472;28;20029;-76
2023/11/02 13:07:30;;;;;;;2.10;1.10;;;;;;;;;;5010297;28;20018;-76
2023/11/02 13:09:59;;;;;;;2.65;1.30;;;;;;;;;;5001574;28;20034;-77
2023/11/02 13:12:24;;;;;;;3.58;1.33;;;;;;;;;;4998070;28;20517;-75
2023/11/02 13:14:50;;;;;;;2.42;1.17;;;;;;;;;;5016489;28;20036;-77
2023/11/02 13:17:16;;;;;;;2.60;1.30;;;;;;;;;;5008155;28;20038;-76
2023/11/02 13:19:41;;;;;;;3.10;1.15;;;;;;;;;;5000719;28;20021;-76
2023/11/02 13:22:09;;;;;;;3.28;1.48;;;;;;;;;;5005551;28;20450;-75
2023/11/02 13:24:34;;;;;;;3.38;1.45;;;;;;;;;;5006356;28;20068;-76
2023/11/02 13:26:59;;;;;;;3.25;1.77;;;;;;;;;;5010638;28;20438;-76
2023/11/02 13:29:24;;;;;;;9.27;3.25;;;;;;;;;;5010568;28;20104;-75
2023/11/02 13:31:51;;;;;;;18.73;3.65;;;;;;;;;;5009352;28;20038;-76
2023/11/02 13:34:18;;;;;;;7.57;2.22;;;;;;;;;;5012690;28;20046;-75
2023/11/02 13:36:45;;;;;;;5.40;1.63;;;;;;;;;;4990649;28;20037;-76
2023/11/02 13:39:11;;;;;;;6.38;1.70;;;;;;;;;;5004216;28;20034;-76
2023/11/02 13:41:36;;;;;;;3.50;1.42;;;;;;;;;;4991903;28;20072;-76
2023/11/02 13:44:03;;;;;;;5.35;1.70;;;;;;;;;;5010960;28;20130;-76
2023/11/02 13:46:28;;;;;;;3.38;1.35;;;;;;;;;;5016721;28;20101;-76
2023/11/02 13:48:56;;;;;;;4.15;1.60;;;;;;;;;;5010408;28;20566;-76
2023/11/02 13:51:21;;;;;;;3.40;1.73;;;;;;;;;;5009653;28;20140;-76
2023/11/02 13:53:47;;;;;;;3.15;1.70;;;;;;;;;;5006143;28;20129;-75
2023/11/02 13:56:12;;;;;;;4.25;2.05;;;;;;;;;;5021029;28;20030;-76
2023/11/02 13:58:38;;;;;;;4.00;2.05;;;;;;;;;;5017787;28;20032;-76
2023/11/02 14:01:04;;;;;;;3.58;1.83;;;;;;;;;;5007616;28;20186;-76
2023/11/02 14:03:30;;;;;;;3.92;1.75;;;;;;;;;;4998466;28;20134;-75
2023/11/02 14:05:55;;;;;;;3.88;2.25;;;;;;;;;;5008500;28;20393;-76
2023/11/02 14:08:21;;;;;;;4.53;2.03;;;;;;;;;;5012888;28;20109;-76
2023/11/02 14:10:46;;;;;;;3.15;1.90;;;;;;;;;;5019014;28;20029;-76
2023/11/02 14:13:12;;;;;;;3.70;1.63;;;;;;;;;;5010739;28;20125;-76
2023/11/02 14:15:37;;;;;;;5.00;1.85;;;;;;;;;;5014839;28;20056;-76
2023/11/02 14:18:03;;;;;;;4.85;2.22;;;;;;;;;;5008233;28;20129;-76
2023/11/02 14:20:28;;;;;;;4.55;1.88;;;;;;;;;;5007305;28;20490;-76
2023/11/02 14:22:54;;;;;;;5.90;1.98;;;;;;;;;;5016893;28;20052;-76
2023/11/02 14:25:19;;;;;;;3.15;1.67;;;;;;;;;;5017653;28;20477;-76
2023/11/02 14:27:47;;;;;;;3.35;2.08;;;;;;;;;;5014700;28;20161;-76
2023/11/02 14:30:12;;;;;;;2.95;1.85;;;;;;;;;;4998968;28;20046;-76
2023/11/02 14:32:38;;;;;;;3.67;1.70;;;;;;;;;;5008553;28;20034;-76
2023/11/02 14:35:06;;;;;;;3.20;1.58;;;;;;;;;;5007896;28;20041;-76
2023/11/02 14:37:31;;;;;;;5.70;2.10;;;;;;;;;;5010556;28;20035;-75
2023/11/02 14:39:57;;;;;;;5.25;2.10;;;;;;;;;;5015699;28;20038;-76
2023/11/02 14:42:23;;;;;;;3.20;1.67;;;;;;;;;;5015434;28;20113;-75
2023/11/02 14:44:49;;;;;;;6.88;2.35;;;;;;;;;;5005358;28;20375;-76